Time;durP1;ratioP1;P1;durP2;ratioP2;P2;SDS_P1;SDS_P2;PMS_P1;PMS_P2;Temp;Humidity;BMP_temperature;BMP_pressure;BME280_temperature;BME280_humidity;BME280_pressure;Samples;Min_cycle;Max_cycle;Signal;HPM_P1;HPM_P2
2022/04/28 00:00:40;;;;;;;9.80;5.33;;;8.80;99.90;;;;;;5034145;28;20207;-93
2022/04/28 00:03:14;;;;;;;14.13;5.30;;;8.80;99.90;;;;;;5034095;28;20204;-93
2022/04/28 00:05:47;;;;;;;12.30;5.80;;;8.70;99.90;;;;;;5034387;28;20617;-93
2022/04/28 00:08:20;;;;;;;11.17;5.33;;;8.80;99.90;;;;;;5034574;28;20203;-92
2022/04/28 00:10:53;;;;;;;11.47;5.30;;;8.80;99.90;;;;;;5034337;28;20210;-94
2022/04/28 00:13:23;;;;;;;9.83;5.23;;;8.70;99.90;;;;;;5034108;28;20231;-94
2022/04/28 00:15:50;;;;;;;11.60;5.10;;;8.60;99.90;;;;;;5033936;28;20203;-94
2022/04/28 00:18:18;;;;;;;15.60;6.00;;;8.60;99.90;;;;;;5034386;28;20298;-93
2022/04/28 00:20:46;;;;;;;14.10;5.63;;;8.70;99.90;;;;;;5034681;28;20238;-93
2022/04/28 00:23:19;;;;;;;9.47;5.50;;;8.60;99.90;;;;;;5034182;28;20203;-94
2022/04/28 00:25:51;;;;;;;12.43;6.07;;;8.60;99.90;;;;;;5034135;28;20661;-94
2022/04/28 00:28:24;;;;;;;13.00;6.65;;;8.60;99.90;;;;;;5033996;28;20443;-93
2022/04/28 00:30:57;;;;;;;15.43;5.87;;;8.60;99.90;;;;;;5034267;28;20207;-93
2022/04/28 00:33:28;;;;;;;12.37;6.10;;;8.70;99.90;;;;;;5033793;28;20316;-93
2022/04/28 00:35:58;;;;;;;12.53;5.77;;;8.70;99.90;;;;;;5034282;28;20214;-92
2022/04/28 00:38:55;;;;;;;11.33;5.73;;;8.70;99.90;;;;;;5033763;28;20203;-93
2022/04/28 00:41:25;;;;;;;11.90;5.20;;;8.70;99.90;;;;;;5034261;28;20254;-93
2022/04/28 00:43:55;;;;;;;12.57;5.40;;;8.70;99.90;;;;;;5033816;28;20207;-92
2022/04/28 00:46:25;;;;;;;10.97;5.40;;;8.50;99.90;;;;;;5033974;28;20209;-93
2022/04/28 00:51:45;;;;;;;10.77;5.93;;;8.50;99.90;;;;;;5033554;28;20944;-93
2022/04/28 00:54:12;;;;;;;14.10;5.67;;;8.40;99.90;;;;;;5043003;28;20234;-92
2022/04/28 00:57:17;;;;;;;8.17;5.30;;;8.40;99.90;;;;;;5053549;28;20206;-93
2022/04/28 00:59:46;;;;;;;10.67;5.47;;;8.40;99.90;;;;;;5053462;28;20206;-93
2022/04/28 01:02:20;;;;;;;9.50;5.60;;;8.40;99.90;;;;;;5053714;28;20225;-93
2022/04/28 01:04:49;;;;;;;13.30;5.43;;;8.30;99.90;;;;;;5053705;28;20215;-92
2022/04/28 01:07:17;;;;;;;18.00;6.03;;;8.30;99.90;;;;;;5053130;28;20666;-93
2022/04/28 01:09:44;;;;;;;11.70;6.13;;;8.20;99.90;;;;;;5053746;28;20654;-92
2022/04/28 01:12:14;;;;;;;11.17;5.27;;;8.10;99.90;;;;;;5055651;28;20597;-92
2022/04/28 01:14:47;;;;;;;12.57;5.27;;;8.20;99.90;;;;;;5057539;28;20257;-93
2022/04/28 01:17:16;;;;;;;10.93;5.33;;;8.10;99.90;;;;;;5057482;28;20213;-93
2022/04/28 01:19:43;;;;;;;13.07;5.67;;;8.20;99.90;;;;;;5057766;28;20195;-92
2022/04/28 01:22:12;;;;;;;11.83;5.67;;;8.30;99.90;;;;;;5060244;28;20210;-92
2022/04/28 01:24:39;;;;;;;10.20;5.30;;;8.30;99.90;;;;;;5060163;28;20201;-92
2022/04/28 01:27:08;;;;;;;10.27;5.37;;;8.30;99.90;;;;;;5056864;28;20210;-93
2022/04/28 01:29:35;;;;;;;10.13;5.47;;;8.20;99.90;;;;;;5056379;28;20528;-93
2022/04/28 01:32:09;;;;;;;12.67;5.63;;;8.10;99.90;;;;;;5057137;28;20203;-92
2022/04/28 01:34:44;;;;;;;7.00;5.13;;;8.10;99.90;;;;;;5057069;28;20228;-92
2022/04/28 01:37:13;;;;;;;18.97;6.03;;;8.20;99.90;;;;;;5056729;28;20195;-93
2022/04/28 01:39:41;;;;;;;11.10;5.67;;;8.20;99.90;;;;;;5056949;28;20202;-93
2022/04/28 01:42:13;;;;;;;10.60;5.93;;;8.10;99.90;;;;;;5056787;28;20209;-92
2022/04/28 01:44:41;;;;;;;11.83;5.50;;;8.20;99.90;;;;;;5056939;28;20197;-93
2022/04/28 01:47:14;;;;;;;11.73;5.30;;;8.10;99.90;;;;;;5056942;28;20214;-93
2022/04/28 01:49:42;;;;;;;8.40;5.67;;;8.00;99.90;;;;;;5057824;28;20210;-92
2022/04/28 01:55:00;;;;;;;6.80;5.80;;;8.00;99.90;;;;;;5061106;28;20862;-93
2022/04/28 01:57:29;;;;;;;11.17;6.10;;;8.00;99.90;;;;;;5057331;28;20237;-92
2022/04/28 01:59:59;;;;;;;9.73;6.13;;;7.90;99.90;;;;;;5056456;28;20199;-93
2022/04/28 02:02:58;;;;;;;16.33;6.13;;;8.00;99.90;;;;;;5056776;28;20203;-93
2022/04/28 02:05:28;;;;;;;8.87;5.43;;;8.00;99.90;;;;;;5056472;28;20221;-93
2022/04/28 02:07:55;;;;;;;11.87;6.40;;;7.90;99.90;;;;;;5056813;28;20211;-93
2022/04/28 02:10:23;;;;;;;10.47;6.07;;;7.90;99.90;;;;;;5056819;28;20243;-92
2022/04/28 02:12:52;;;;;;;12.03;6.20;;;7.90;99.90;;;;;;5056362;28;20198;-92
2022/04/28 02:15:25;;;;;;;9.83;5.57;;;7.80;99.90;;;;;;5055758;28;20602;-93
2022/04/28 02:17:58;;;;;;;8.97;5.73;;;7.80;99.90;;;;;;5056412;28;20202;-93
2022/04/28 02:20:31;;;;;;;11.80;5.93;;;7.90;99.90;;;;;;5056390;28;20198;-92
2022/04/28 02:23:05;;;;;;;9.83;5.83;;;7.80;99.90;;;;;;5056187;28;20236;-93
2022/04/28 02:25:40;;;;;;;13.30;6.80;;;7.70;99.90;;;;;;5056667;28;20202;-92
2022/04/28 02:28:07;;;;;;;11.47;6.17;;;7.80;99.90;;;;;;5056246;28;20201;-92
2022/04/28 02:30:37;;;;;;;11.50;6.37;;;7.70;99.90;;;;;;5056483;28;20195;-92
2022/04/28 02:33:10;;;;;;;12.93;6.30;;;7.70;99.90;;;;;;5056915;28;20202;-92
2022/04/28 02:35:42;;;;;;;14.13;6.97;;;7.60;99.90;;;;;;5056789;28;20643;-92
2022/04/28 02:38:12;;;;;;;13.70;6.87;;;7.60;99.90;;;;;;5055683;28;20620;-92
2022/04/28 02:40:40;;;;;;;14.53;6.57;;;7.50;99.90;;;;;;5056774;28;20203;-92
2022/04/28 02:43:10;;;;;;;13.00;6.60;;;7.60;99.90;;;;;;5056083;28;20205;-93
2022/04/28 02:45:41;;;;;;;12.87;5.83;;;7.50;99.90;;;;;;5056869;28;20190;-94
2022/04/28 02:48:15;;;;;;;14.70;6.60;;;7.50;99.90;;;;;;5056630;28;20198;-94
2022/04/28 02:50:52;;;;;;;14.00;7.23;;;7.50;99.90;;;;;;5056931;28;20198;-93
2022/04/28 02:53:24;;;;;;;14.40;8.07;;;7.40;99.90;;;;;;5056355;28;20445;-93
2022/04/28 02:55:54;;;;;;;13.03;6.57;;;7.50;99.90;;;;;;5057124;28;20214;-93
2022/04/28 02:58:21;;;;;;;9.43;6.57;;;7.50;99.90;;;;;;5056501;28;20191;-93
2022/04/28 03:00:53;;;;;;;13.50;6.90;;;7.50;99.90;;;;;;5056983;28;20213;-92
2022/04/28 03:03:20;;;;;;;11.40;6.27;;;7.60;99.90;;;;;;5056549;28;20232;-93
2022/04/28 03:11:21;;;;;;;13.23;7.20;;;7.40;99.90;;;;;;5056356;28;20263;-94
2022/04/28 03:13:51;;;;;;;18.17;7.60;;;7.50;99.90;;;;;;5054626;28;20663;-93
2022/04/28 03:16:24;;;;;;;11.37;6.93;;;7.50;99.90;;;;;;5056043;28;20205;-94
2022/04/28 03:18:54;;;;;;;17.23;8.52;;;7.40;99.90;;;;;;5054330;28;20775;-93
2022/04/28 03:21:24;;;;;;;13.73;7.50;;;7.50;99.90;;;;;;5056322;28;20230;-94
2022/04/28 03:23:57;;;;;;;17.27;7.13;;;7.40;99.90;;;;;;5056845;28;20202;-93
2022/04/28 03:26:29;;;;;;;15.40;7.27;;;7.50;99.90;;;;;;5055135;28;20221;-94
2022/04/28 03:29:01;;;;;;;17.37;7.47;;;7.60;99.90;;;;;;5055385;28;20206;-93
2022/04/28 03:31:31;;;;;;;16.63;7.37;;;7.50;99.90;;;;;;5055323;28;20202;-94
2022/04/28 03:34:04;;;;;;;15.07;6.93;;;7.60;99.90;;;;;;5054328;28;20238;-94
2022/04/28 03:36:51;;;;;;;18.20;8.07;;;7.60;99.90;;;;;;5054198;28;20256;-93
2022/04/28 03:39:21;;;;;;;13.30;6.83;;;7.50;99.90;;;;;;5055396;28;20661;-94
2022/04/28 03:41:53;;;;;;;16.58;8.02;;;7.60;99.90;;;;;;5054619;28;21019;-93
2022/04/28 03:44:20;;;;;;;19.87;8.67;;;7.50;99.90;;;;;;5055605;28;20646;-94
2022/04/28 03:46:50;;;;;;;17.33;7.47;;;7.50;99.90;;;;;;5054682;28;20210;-94
2022/04/28 03:49:20;;;;;;;17.60;7.80;;;7.60;99.90;;;;;;5054689;28;20202;-94
2022/04/28 03:51:53;;;;;;;20.37;8.03;;;7.60;99.90;;;;;;5054822;28;20206;-93
2022/04/28 03:54:21;;;;;;;18.50;9.53;;;7.50;99.90;;;;;;5054298;28;20226;-94
2022/04/28 03:56:55;;;;;;;24.43;10.47;;;7.40;99.90;;;;;;5053147;28;20207;-93
2022/04/28 03:59:28;;;;;;;21.30;9.97;;;7.40;99.90;;;;;;5054354;28;20198;-94
2022/04/28 04:01:57;;;;;;;23.30;9.67;;;7.40;99.90;;;;;;5055017;28;20194;-93
2022/04/28 04:04:27;;;;;;;22.37;10.17;;;7.50;99.90;;;;;;5062688;28;20219;-92
2022/04/28 04:06:55;;;;;;;22.40;8.30;;;7.60;99.90;;;;;;5068731;28;20221;-93
2022/04/28 04:09:28;;;;;;;16.30;8.13;;;7.50;99.90;;;;;;5063717;28;20190;-93
2022/04/28 04:11:57;;;;;;;22.37;9.07;;;7.50;99.90;;;;;;5069489;28;20246;-94
2022/04/28 04:17:58;;;;;;;15.23;7.53;;;7.50;99.90;;;;;;5068375;28;20188;-94
2022/04/28 04:20:31;;;;;;;11.37;7.17;;;7.50;99.90;;;;;;5067442;28;20203;-91
2022/04/28 04:23:17;;;;;;;16.63;7.30;;;7.40;99.90;;;;;;5068397;28;20556;-91
2022/04/28 04:25:48;;;;;;;15.47;7.33;;;7.50;99.90;;;;;;5068618;28;20214;-92
2022/04/28 04:29:01;;;;;;;26.57;9.67;;;7.50;99.90;;;;;;5071797;28;20206;-91
2022/04/28 04:34:39;;;;;;;17.60;8.40;;;7.40;99.90;;;;;;5067666;28;20221;-91
2022/04/28 04:37:12;;;;;;;15.77;7.83;;;7.30;99.90;;;;;;5055294;28;20206;-92
2022/04/28 04:39:42;;;;;;;15.37;8.37;;;7.30;99.90;;;;;;5054700;28;20201;-92
2022/04/28 04:42:15;;;;;;;14.50;8.30;;;7.30;99.90;;;;;;5055283;28;20305;-92
2022/04/28 04:45:00;;;;;;;17.80;9.20;;;7.30;99.90;;;;;;5054606;28;20233;-93
2022/04/28 04:47:48;;;;;;;22.43;9.70;;;7.30;99.90;;;;;;5055251;28;20206;-93
2022/04/28 04:50:20;;;;;;;19.50;7.87;;;7.40;99.90;;;;;;5057813;28;20206;-90
2022/04/28 04:52:53;;;;;;;16.60;7.03;;;7.50;99.90;;;;;;5058000;28;20205;-91
2022/04/28 04:55:26;;;;;;;11.90;6.97;;;7.70;99.90;;;;;;5059156;28;20217;-91
2022/04/28 04:57:59;;;;;;;16.17;7.30;;;7.70;99.90;;;;;;5060418;28;20687;-90
2022/04/28 05:00:25;;;;;;;14.73;7.30;;;7.50;99.90;;;;;;5064797;28;20536;-91
2022/04/28 05:02:54;;;;;;;10.20;6.23;;;7.60;99.90;;;;;;5060112;28;20689;-90
2022/04/28 05:05:26;;;;;;;11.73;6.93;;;7.80;99.90;;;;;;5058608;28;20222;-90
2022/04/28 05:07:53;;;;;;;10.30;6.90;;;7.90;99.90;;;;;;5058650;28;20198;-90
2022/04/28 05:10:20;;;;;;;14.70;7.73;;;7.90;99.90;;;;;;5058219;28;20221;-91
2022/04/28 05:12:47;;;;;;;13.70;7.93;;;7.80;99.90;;;;;;5058671;28;20229;-90
2022/04/28 05:15:32;;;;;;;14.20;8.17;;;7.80;99.90;;;;;;5058596;28;20225;-90
2022/04/28 05:18:07;;;;;;;15.23;8.50;;;7.70;99.90;;;;;;5058495;28;20205;-91
2022/04/28 05:20:36;;;;;;;16.03;8.03;;;7.70;99.90;;;;;;5058422;28;20191;-90
2022/04/28 05:23:09;;;;;;;17.17;8.90;;;7.60;99.90;;;;;;5058256;28;20555;-93
2022/04/28 05:25:44;;;;;;;14.77;8.70;;;7.70;99.90;;;;;;5059253;28;20207;-89
2022/04/28 05:28:12;;;;;;;23.00;9.33;;;7.60;99.90;;;;;;5059772;28;20692;-93
2022/04/28 05:30:39;;;;;;;22.37;9.67;;;7.70;99.90;;;;;;5059745;28;20195;-93
2022/04/28 05:33:07;;;;;;;19.30;10.13;;;7.60;99.90;;;;;;5058040;28;20664;-91
2022/04/28 05:35:37;;;;;;;18.53;9.33;;;7.60;99.90;;;;;;5058335;28;20265;-91
2022/04/28 05:38:04;;;;;;;19.40;9.57;;;7.70;99.90;;;;;;5057374;28;20194;-88
2022/04/28 05:40:31;;;;;;;18.70;9.93;;;7.80;99.90;;;;;;5056526;28;20202;-89
2022/04/28 05:45:47;;;;;;;14.70;8.63;;;7.80;99.90;;;;;;5056851;28;20205;-88
2022/04/28 05:48:16;;;;;;;19.30;9.07;;;7.80;99.90;;;;;;5055656;28;20198;-88
2022/04/28 05:50:44;;;;;;;19.83;9.20;;;7.90;99.90;;;;;;5055695;28;20205;-88
2022/04/28 05:53:11;;;;;;;15.60;9.17;;;7.90;99.90;;;;;;5055727;28;20206;-88
2022/04/28 05:55:39;;;;;;;16.07;9.40;;;7.90;99.90;;;;;;5056109;28;20230;-89
2022/04/28 05:58:07;;;;;;;19.40;8.50;;;7.90;99.90;;;;;;5055639;28;20576;-88
2022/04/28 06:00:35;;;;;;;12.40;8.33;;;7.90;99.90;;;;;;5055737;28;20198;-90
2022/04/28 06:03:02;;;;;;;17.47;8.30;;;8.00;99.90;;;;;;5055626;28;20230;-88
2022/04/28 06:05:31;;;;;;;11.47;7.80;;;8.00;99.90;;;;;;5055706;28;20198;-89
2022/04/28 06:07:58;;;;;;;14.50;8.03;;;8.10;99.90;;;;;;5055416;28;20631;-89
2022/04/28 06:10:24;;;;;;;13.93;7.87;;;8.20;99.90;;;;;;5055495;28;20202;-89
2022/04/28 06:12:51;;;;;;;17.23;8.30;;;8.20;99.90;;;;;;5055200;28;20225;-88
2022/04/28 06:15:18;;;;;;;15.87;7.67;;;8.10;99.90;;;;;;5055931;28;20259;-89
2022/04/28 06:17:45;;;;;;;11.67;8.20;;;8.20;99.90;;;;;;5055801;28;20206;-88
2022/04/28 06:20:12;;;;;;;14.77;8.63;;;8.20;99.90;;;;;;5055628;28;20202;-89
2022/04/28 06:22:41;;;;;;;16.50;8.00;;;8.40;99.90;;;;;;5056493;28;20199;-89
2022/04/28 06:25:08;;;;;;;17.00;9.93;;;8.50;99.90;;;;;;5056749;28;20244;-89
2022/04/28 06:27:36;;;;;;;19.20;9.23;;;8.50;99.90;;;;;;5056490;28;20202;-88
2022/04/28 06:30:03;;;;;;;21.70;10.50;;;8.70;99.90;;;;;;5055457;28;20202;-87
2022/04/28 06:32:30;;;;;;;16.80;10.43;;;8.70;99.90;;;;;;5055066;28;20691;-88
2022/04/28 06:34:58;;;;;;;17.97;10.13;;;8.80;99.90;;;;;;5055229;28;20218;-89
2022/04/28 06:37:25;;;;;;;14.60;10.40;;;8.80;99.90;;;;;;5054843;28;20206;-89
2022/04/28 06:39:53;;;;;;;21.50;10.13;;;8.90;99.90;;;;;;5055085;28;20210;-90
2022/04/28 06:42:20;;;;;;;19.93;9.13;;;8.90;99.90;;;;;;5055536;28;20264;-90
2022/04/28 06:44:47;;;;;;;14.80;10.00;;;9.00;99.90;;;;;;5055287;28;20206;-90
2022/04/28 06:47:14;;;;;;;15.07;9.43;;;9.10;99.90;;;;;;5055285;28;20206;-88
2022/04/28 06:49:42;;;;;;;20.73;9.97;;;9.20;99.90;;;;;;5054768;28;20681;-89
2022/04/28 06:52:09;;;;;;;19.23;10.03;;;9.30;99.90;;;;;;5055355;28;20210;-88
2022/04/28 06:54:38;;;;;;;16.27;9.57;;;9.50;99.90;;;;;;5055662;28;20209;-89
2022/04/28 06:57:13;;;;;;;17.07;9.70;;;9.70;99.90;;;;;;5055472;28;20261;-89
2022/04/28 06:59:43;;;;;;;16.45;10.88;;;9.70;99.90;;;;;;5052719;28;20426;-88
2022/04/28 07:02:10;;;;;;;11.70;9.73;;;9.80;99.90;;;;;;5054199;28;20229;-89
2022/04/28 07:04:39;;;;;;;13.50;9.73;;;9.80;99.90;;;;;;5051059;28;20245;-87
2022/04/28 07:07:06;;;;;;;17.03;9.87;;;9.90;99.90;;;;;;5034655;28;20566;-88
2022/04/28 07:09:39;;;;;;;14.30;9.90;;;10.00;99.90;;;;;;5050663;28;20198;-88
2022/04/28 07:12:07;;;;;;;15.10;9.47;;;10.10;99.90;;;;;;5051347;28;20666;-87
2022/04/28 07:14:35;;;;;;;16.87;9.40;;;10.20;99.90;;;;;;5042513;28;20250;-89
2022/04/28 07:17:05;;;;;;;16.50;9.80;;;10.30;99.90;;;;;;5052065;28;20633;-88
2022/04/28 07:19:35;;;;;;;13.17;9.57;;;10.50;99.90;;;;;;5054227;28;20212;-86
2022/04/28 07:22:05;;;;;;;14.00;9.63;;;10.50;99.90;;;;;;5054569;28;20210;-90
2022/04/28 07:24:32;;;;;;;17.17;10.80;;;10.70;99.90;;;;;;5054318;28;20544;-91
2022/04/28 07:26:59;;;;;;;17.63;10.70;;;10.60;99.90;;;;;;5054359;28;20562;-93
2022/04/28 07:29:26;;;;;;;19.13;11.10;;;10.60;99.90;;;;;;5054415;28;20202;-89
2022/04/28 07:31:54;;;;;;;13.70;10.53;;;10.70;99.90;;;;;;5054503;28;20653;-89
2022/04/28 07:34:21;;;;;;;13.87;10.07;;;10.90;99.90;;;;;;5053971;28;20213;-88
2022/04/28 07:36:48;;;;;;;15.67;10.43;;;11.10;99.90;;;;;;5059722;28;20218;-87
2022/04/28 07:39:18;;;;;;;13.13;9.47;;;11.20;99.90;;;;;;5057977;28;20190;-89
2022/04/28 07:41:45;;;;;;;14.43;10.63;;;11.10;99.90;;;;;;5054296;28;20662;-89
2022/04/28 07:44:12;;;;;;;15.10;10.20;;;11.30;99.90;;;;;;5054812;28;20211;-89
2022/04/28 07:46:42;;;;;;;20.60;11.07;;;11.30;99.90;;;;;;5054899;28;20199;-92
2022/04/28 07:49:16;;;;;;;19.73;11.10;;;11.40;99.90;;;;;;5054311;28;20650;-87
2022/04/28 07:51:44;;;;;;;18.53;11.50;;;11.50;99.90;;;;;;5054017;28;20210;-89
2022/04/28 07:54:17;;;;;;;16.97;11.10;;;11.60;99.90;;;;;;5054185;28;20204;-89
2022/04/28 07:56:45;;;;;;;18.17;11.17;;;11.60;99.90;;;;;;5054318;28;20218;-92
2022/04/28 07:59:33;;;;;;;16.33;11.17;;;11.60;99.90;;;;;;5054336;28;20198;-89
2022/04/28 08:02:04;;;;;;;13.77;11.27;;;11.80;99.90;;;;;;5053779;28;20218;-90
2022/04/28 08:04:33;;;;;;;15.70;11.40;;;12.10;99.90;;;;;;5054437;28;20203;-89
2022/04/28 08:07:05;;;;;;;16.10;11.23;;;12.20;99.90;;;;;;5054341;28;20240;-89
2022/04/28 08:09:34;;;;;;;14.57;11.07;;;12.20;99.90;;;;;;5055204;28;20198;-89
2022/04/28 08:12:00;;;;;;;15.57;12.55;;;12.10;99.90;;;;;;5056838;28;20433;-90
2022/04/28 08:14:30;;;;;;;15.27;11.10;;;12.30;99.90;;;;;;5055006;28;20575;-90
2022/04/28 08:16:59;;;;;;;16.43;10.67;;;12.50;99.90;;;;;;5053664;28;20240;-93
2022/04/28 08:19:26;;;;;;;15.53;10.97;;;12.50;99.90;;;;;;5055924;28;20216;-90
2022/04/28 08:22:01;;;;;;;19.40;10.70;;;12.40;99.90;;;;;;5056446;28;20557;-92
2022/04/28 08:24:28;;;;;;;18.03;11.10;;;12.60;99.90;;;;;;5054036;28;20198;-89
2022/04/28 08:26:58;;;;;;;16.70;11.37;;;12.60;99.90;;;;;;5053936;28;20235;-89
2022/04/28 08:29:28;;;;;;;14.17;11.23;;;12.70;99.90;;;;;;5053673;28;20210;-89
2022/04/28 08:31:56;;;;;;;16.10;10.87;;;12.70;99.90;;;;;;5053577;28;20560;-93
2022/04/28 08:34:23;;;;;;;25.30;11.33;;;12.90;99.90;;;;;;5053418;28;20216;-83
2022/04/28 08:36:51;;;;;;;12.83;10.23;;;13.10;99.90;;;;;;5052299;28;20262;-80
2022/04/28 08:39:19;;;;;;;15.10;10.57;;;13.20;99.90;;;;;;5052856;28;20205;-85
2022/04/28 08:41:47;;;;;;;14.43;10.60;;;13.20;99.90;;;;;;5052594;28;20212;-84
2022/04/28 08:44:17;;;;;;;14.27;10.80;;;13.20;99.90;;;;;;5052338;28;20204;-82
2022/04/28 08:46:54;;;;;;;17.70;11.40;;;13.20;99.90;;;;;;5052104;28;20648;-84
2022/04/28 08:49:24;;;;;;;16.17;10.57;;;13.30;99.90;;;;;;5052855;28;20248;-81
2022/04/28 08:51:55;;;;;;;25.40;11.20;;;13.40;99.90;;;;;;5052375;28;20232;-85
2022/04/28 08:54:25;;;;;;;15.00;10.50;;;13.70;99.90;;;;;;5053556;28;20213;-84
2022/04/28 08:56:54;;;;;;;19.10;9.87;;;13.90;99.90;;;;;;5052665;28;20229;-85
2022/04/28 08:59:21;;;;;;;15.60;11.27;;;14.00;99.90;;;;;;5053092;28;20269;-92
2022/04/28 09:01:48;;;;;;;19.23;11.87;;;14.10;99.90;;;;;;5053763;28;20212;-88
2022/04/28 09:04:15;;;;;;;24.77;11.83;;;13.90;99.90;;;;;;5056864;28;20198;-88
2022/04/28 09:06:43;;;;;;;15.90;10.83;;;13.90;99.90;;;;;;5053102;28;20570;-91
2022/04/28 09:09:11;;;;;;;20.80;12.10;;;13.80;99.90;;;;;;5053452;28;20205;-89
2022/04/28 09:11:41;;;;;;;25.23;11.47;;;14.00;99.90;;;;;;5053650;28;20599;-89
2022/04/28 09:14:10;;;;;;;17.60;10.43;;;13.80;99.90;;;;;;5053540;28;20202;-89
2022/04/28 09:16:38;;;;;;;14.77;10.47;;;14.10;99.90;;;;;;5053724;28;20229;-86
2022/04/28 09:19:05;;;;;;;15.33;9.80;;;14.40;99.90;;;;;;5053419;28;20240;-87
2022/04/28 09:21:34;;;;;;;16.63;10.30;;;14.40;99.90;;;;;;5053269;28;20212;-87
2022/04/28 09:24:02;;;;;;;11.67;9.10;;;14.50;99.90;;;;;;5053597;28;20653;-88
2022/04/28 09:26:32;;;;;;;10.60;9.13;;;14.60;99.90;;;;;;5053544;28;20611;-86
2022/04/28 09:29:02;;;;;;;14.27;9.73;;;14.80;99.90;;;;;;5053187;28;20422;-88
2022/04/28 09:31:33;;;;;;;10.93;9.50;;;14.80;99.90;;;;;;5053676;28;20205;-88
2022/04/28 09:34:07;;;;;;;15.60;9.50;;;14.70;99.90;;;;;;5060253;28;20556;-89
2022/04/28 09:36:34;;;;;;;15.23;10.43;;;14.70;99.90;;;;;;5058199;28;20344;-87
2022/04/28 09:39:01;;;;;;;11.97;9.17;;;14.70;99.90;;;;;;5056529;28;20209;-90
2022/04/28 09:44:16;;;;;;;11.40;9.40;;;15.00;99.90;;;;;;5056761;28;20252;-87
2022/04/28 09:46:43;;;;;;;14.70;10.10;;;15.20;99.90;;;;;;5056974;28;20211;-88
2022/04/28 09:49:12;;;;;;;13.60;10.07;;;15.20;99.90;;;;;;5057452;28;20448;-88
2022/04/28 09:51:40;;;;;;;13.83;10.60;;;15.50;99.90;;;;;;5058639;28;20215;-88
2022/04/28 09:54:09;;;;;;;11.50;10.17;;;15.70;99.90;;;;;;5059410;28;20228;-89
2022/04/28 09:56:38;;;;;;;11.57;10.07;;;15.80;99.90;;;;;;5059205;28;20226;-88
2022/04/28 09:59:09;;;;;;;13.57;8.97;;;15.60;99.90;;;;;;5058460;28;20211;-88
2022/04/28 10:01:39;;;;;;;14.57;9.73;;;15.50;99.90;;;;;;5056541;28;20198;-86
2022/04/28 10:04:06;;;;;;;11.60;10.20;;;15.70;99.90;;;;;;5056404;28;20212;-87
2022/04/28 10:06:35;;;;;;;16.90;9.97;;;15.80;99.90;;;;;;5056882;28;20613;-87
2022/04/28 10:09:06;;;;;;;16.10;10.93;;;15.80;99.90;;;;;;5056545;28;20222;-88
2022/04/28 10:11:33;;;;;;;11.83;9.93;;;15.80;99.90;;;;;;5056358;28;20203;-84
2022/04/28 10:14:03;;;;;;;14.30;11.07;;;15.80;99.90;;;;;;5056079;28;20442;-88
2022/04/28 10:16:30;;;;;;;11.57;9.63;;;15.80;99.90;;;;;;5060465;28;20214;-88
2022/04/28 10:19:04;;;;;;;12.93;9.83;;;15.90;99.90;;;;;;5060647;28;20207;-87
2022/04/28 10:21:37;;;;;;;12.50;9.67;;;16.10;99.90;;;;;;5056040;28;20300;-87
2022/04/28 10:32:55;;;;;;;12.47;10.23;;;16.60;99.90;;;;;;5056005;28;20205;-86
2022/04/28 10:35:38;;;;;;;14.43;11.13;;;16.40;99.90;;;;;;5055904;28;20228;-88
2022/04/28 10:38:07;;;;;;;15.43;10.73;;;16.60;99.90;;;;;;5055830;28;20213;-88
2022/04/28 10:40:38;;;;;;;17.43;10.90;;;16.60;99.90;;;;;;5055839;28;20197;-87
2022/04/28 10:43:05;;;;;;;12.80;10.13;;;16.80;99.90;;;;;;5054812;28;20738;-86
2022/04/28 10:45:40;;;;;;;14.07;9.57;;;16.90;99.90;;;;;;5054013;28;20237;-86
2022/04/28 10:48:28;;;;;;;15.37;10.33;;;16.60;99.90;;;;;;5054935;28;20724;-86
2022/04/28 10:51:12;;;;;;;12.40;10.63;;;16.60;99.90;;;;;;5054993;28;20213;-86
2022/04/28 10:54:02;;;;;;;13.77;9.93;;;16.80;99.90;;;;;;5054850;28;20209;-86
2022/04/28 10:56:30;;;;;;;12.70;10.97;;;16.80;99.90;;;;;;5055099;28;20233;-85
2022/04/28 10:59:01;;;;;;;12.30;10.83;;;17.00;99.90;;;;;;5055193;28;20673;-86
2022/04/28 11:01:31;;;;;;;15.77;10.97;;;16.90;99.90;;;;;;5054871;28;20675;-84
2022/04/28 11:04:01;;;;;;;13.20;10.30;;;16.70;99.90;;;;;;5054945;28;20229;-87
2022/04/28 11:06:33;;;;;;;13.60;10.17;;;16.80;99.90;;;;;;5055035;28;20200;-86
2022/04/28 11:09:01;;;;;;;13.53;10.23;;;17.10;99.90;;;;;;5054401;28;20205;-86
2022/04/28 11:11:41;;;;;;;14.93;10.93;;;17.20;99.90;;;;;;5054555;28;20638;-89
2022/04/28 11:14:09;;;;;;;15.37;10.67;;;16.90;99.90;;;;;;5054533;28;20221;-86
2022/04/28 11:16:36;;;;;;;16.10;10.53;;;16.60;99.90;;;;;;5054826;28;20228;-88
2022/04/28 11:19:04;;;;;;;15.83;10.43;;;16.80;99.90;;;;;;5054673;28;20212;-87
2022/04/28 11:21:33;;;;;;;17.67;10.70;;;17.00;99.90;;;;;;5054627;28;20259;-89
2022/04/28 11:24:01;;;;;;;12.50;11.20;;;17.20;99.90;;;;;;5054398;28;20209;-87
2022/04/28 11:26:28;;;;;;;12.80;11.43;;;17.40;99.90;;;;;;5054014;28;20212;-83
2022/04/28 11:28:56;;;;;;;17.33;10.70;;;17.50;99.90;;;;;;5054547;28;20203;-87
2022/04/28 11:31:23;;;;;;;14.97;11.00;;;17.60;99.90;;;;;;5054385;28;20197;-90
2022/04/28 11:33:51;;;;;;;16.93;12.60;;;17.60;99.90;;;;;;5053977;28;20213;-86
2022/04/28 11:36:20;;;;;;;15.07;10.90;;;17.60;99.90;;;;;;5054083;28;20222;-88
2022/04/28 11:39:01;;;;;;;18.53;12.47;;;17.40;99.90;;;;;;5054029;28;20564;-89
2022/04/28 11:41:34;;;;;;;14.70;11.80;;;17.40;99.90;;;;;;5054064;28;20197;-88
2022/04/28 11:44:08;;;;;;;15.63;11.47;;;17.40;99.90;;;;;;5055109;28;20570;-86
2022/04/28 11:46:37;;;;;;;13.53;11.80;;;17.60;99.90;;;;;;5053849;28;20665;-86
2022/04/28 11:49:04;;;;;;;12.13;10.80;;;17.80;99.90;;;;;;5053819;28;20293;-83
2022/04/28 11:51:34;;;;;;;17.73;11.37;;;18.00;99.90;;;;;;5053990;28;20599;-87
2022/04/28 11:54:03;;;;;;;14.83;11.87;;;18.10;99.90;;;;;;5053872;28;20211;-88
2022/04/28 11:56:33;;;;;;;13.67;10.73;;;18.00;99.90;;;;;;5053700;28;20216;-89
2022/04/28 11:59:03;;;;;;;14.07;11.33;;;18.00;99.90;;;;;;5053929;28;20203;-83
2022/04/28 12:01:32;;;;;;;17.07;11.10;;;18.00;99.90;;;;;;5054358;28;20264;-92
2022/04/28 12:04:00;;;;;;;15.67;11.17;;;17.70;99.90;;;;;;5059658;28;20317;-84
2022/04/28 12:06:28;;;;;;;13.63;11.60;;;18.00;99.90;;;;;;5056471;28;20199;-85
2022/04/28 12:08:56;;;;;;;11.77;10.57;;;18.20;99.90;;;;;;5053372;28;20219;-89
2022/04/28 12:14:26;;;;;;;20.03;12.40;;;18.70;99.90;;;;;;5053478;28;20203;-91
2022/04/28 12:19:50;;;;;;;14.37;12.67;;;18.80;99.90;;;;;;5053224;28;20653;-84
2022/04/28 12:22:28;;;;;;;13.83;11.83;;;18.40;99.90;;;;;;5053200;28;20199;-85
2022/04/28 12:24:55;;;;;;;15.23;12.73;;;18.30;99.90;;;;;;5053310;28;20211;-84
2022/04/28 12:27:23;;;;;;;14.30;12.23;;;18.40;99.90;;;;;;5053639;28;20563;-88
2022/04/28 12:29:53;;;;;;;14.90;12.37;;;18.30;99.90;;;;;;5053240;28;20188;-85
2022/04/28 12:32:21;;;;;;;15.73;11.93;;;18.20;99.90;;;;;;5053673;28;20206;-85
2022/04/28 12:34:58;;;;;;;14.67;12.73;;;18.30;99.90;;;;;;5053311;28;20230;-86
2022/04/28 12:37:27;;;;;;;14.63;11.20;;;18.50;99.90;;;;;;5053369;28;20224;-84
2022/04/28 12:39:59;;;;;;;16.37;13.07;;;18.60;99.90;;;;;;5053380;28;20204;-83
2022/04/28 12:42:29;;;;;;;15.10;11.93;;;18.90;99.90;;;;;;5053708;28;20201;-84
2022/04/28 12:44:58;;;;;;;15.73;11.73;;;19.00;99.50;;;;;;5053179;28;20304;-84
2022/04/28 12:47:35;;;;;;;16.93;11.77;;;18.90;99.60;;;;;;5054371;28;20217;-89
2022/04/28 12:50:18;;;;;;;13.87;11.07;;;18.90;99.10;;;;;;5054582;28;20231;-84
2022/04/28 12:52:45;;;;;;;20.53;12.40;;;19.10;99.90;;;;;;5052916;28;20205;-87
2022/04/28 12:55:13;;;;;;;17.30;11.70;;;19.20;99.30;;;;;;5053454;28;20209;-85
2022/04/28 12:57:41;;;;;;;16.33;11.57;;;19.20;98.90;;;;;;5053872;28;20660;-88
2022/04/28 13:00:10;;;;;;;16.10;12.77;;;19.30;99.30;;;;;;5053243;28;20215;-88
2022/04/28 13:02:38;;;;;;;15.10;12.47;;;19.40;98.80;;;;;;5053832;28;20225;-86
2022/04/28 13:05:12;;;;;;;16.27;12.30;;;19.30;98.90;;;;;;5053466;28;20229;-86
2022/04/28 13:07:40;;;;;;;18.50;11.87;;;19.30;99.10;;;;;;5054305;28;20209;-84
2022/04/28 13:10:08;;;;;;;20.93;12.70;;;19.60;98.90;;;;;;5057838;28;20708;-84
2022/04/28 13:12:35;;;;;;;15.93;13.13;;;19.60;98.90;;;;;;5056982;28;20223;-83
2022/04/28 13:15:05;;;;;;;17.27;13.47;;;19.70;98.60;;;;;;5057514;28;20630;-85
2022/04/28 13:17:32;;;;;;;17.17;11.97;;;19.50;98.50;;;;;;5056946;28;20236;-85
2022/04/28 13:19:59;;;;;;;14.13;12.10;;;19.70;98.80;;;;;;5057959;28;20208;-86
2022/04/28 13:22:26;;;;;;;17.77;12.07;;;19.80;98.30;;;;;;5057142;28;20282;-87
2022/04/28 13:24:54;;;;;;;16.43;11.53;;;19.90;98.50;;;;;;5057395;28;20222;-84
2022/04/28 13:27:20;;;;;;;16.17;11.93;;;20.30;98.00;;;;;;5057482;28;20256;-91
2022/04/28 13:29:47;;;;;;;13.85;12.45;;;20.10;97.00;;;;;;5056902;28;20437;-90
2022/04/28 13:32:15;;;;;;;14.60;12.33;;;19.90;97.10;;;;;;5057524;28;20206;-90